Time;durP1;ratioP1;P1;durP2;ratioP2;P2;SDS_P1;SDS_P2;PMS_P1;PMS_P2;Temp;Humidity;BMP_temperature;BMP_pressure;BME280_temperature;BME280_humidity;BME280_pressure;Samples;Min_cycle;Max_cycle;Signal;HPM_P1;HPM_P2
2023/08/28 00:00:11;;;;;;;0.57;0.40;;;;;;;18.44;76.89;99078.19;330922;29;17816;-89
2023/08/28 00:00:24;;;;;;;0.70;0.50;;;;;;;18.45;76.75;99073.75;330975;29;4697;-88
2023/08/28 00:00:36;;;;;;;1.65;0.60;;;;;;;18.44;76.74;99077.38;328116;29;16861;-89
2023/08/28 00:00:48;;;;;;;1.90;0.60;;;;;;;18.40;76.91;99081.19;332821;29;4584;-89
2023/08/28 00:01:00;;;;;;;0.98;0.60;;;;;;;18.39;77.09;99075.09;327820;29;4602;-89
2023/08/28 00:01:12;;;;;;;0.90;0.68;;;;;;;18.39;77.08;99071.59;329353;29;19016;-89
2023/08/28 00:01:25;;;;;;;1.10;0.70;;;;;;;18.36;76.99;99070.88;333395;29;4476;-89
2023/08/28 00:01:37;;;;;;;1.25;0.70;;;;;;;18.38;77.03;99073.38;331639;29;4581;-89
2023/08/28 00:01:49;;;;;;;0.65;0.60;;;;;;;18.38;77.25;99073.38;331298;29;17496;-88
2023/08/28 00:02:01;;;;;;;1.30;0.50;;;;;;;18.38;77.40;99077.81;334597;29;4616;-89
2023/08/28 00:02:13;;;;;;;1.45;0.50;;;;;;;18.34;77.32;99070.13;332483;28;17855;-88
2023/08/28 00:02:25;;;;;;;1.27;0.60;;;;;;;18.35;77.59;99069.19;332869;29;4546;-89
2023/08/28 00:02:38;;;;;;;0.73;0.60;;;;;;;18.35;77.42;99074.47;331756;28;18080;-89
2023/08/28 00:02:50;;;;;;;0.68;0.60;;;;;;;18.36;77.58;99065.59;330676;29;4728;-89
2023/08/28 00:03:02;;;;;;;0.98;0.65;;;;;;;18.35;77.76;99069.19;331579;29;10296;-89
2023/08/28 00:03:15;;;;;;;1.05;0.60;;;;;;;18.33;78.21;99071.09;332779;29;4837;-89
2023/08/28 00:03:27;;;;;;;0.60;0.50;;;;;;;18.29;77.70;99080.19;331130;29;8775;-89
2023/08/28 00:03:41;;;;;;;2.60;0.50;;;;;;;18.28;77.92;99067.97;331309;29;17050;-89
2023/08/28 00:03:53;;;;;;;2.70;0.60;;;;;;;18.26;77.83;99067.25;328423;29;16711;-90
2023/08/28 00:04:06;;;;;;;1.42;0.63;;;;;;;18.26;77.87;99069.88;331048;29;4524;-89
2023/08/28 00:04:18;;;;;;;1.35;0.70;;;;;;;18.29;77.79;99068.78;328387;29;4542;-89
2023/08/28 00:04:30;;;;;;;1.92;0.77;;;;;;;18.32;77.75;99069.41;325633;29;4562;-89
2023/08/28 00:04:42;;;;;;;1.60;0.70;;;;;;;18.33;77.89;99070.25;331229;29;4551;-89
2023/08/28 00:04:55;;;;;;;1.20;0.65;;;;;;;18.34;77.89;99069.31;326980;29;17375;-89
2023/08/28 00:05:07;;;;;;;1.60;0.60;;;;;;;18.33;78.02;99063.22;329427;29;4508;-89
2023/08/28 00:05:19;;;;;;;1.70;0.50;;;;;;;18.31;78.34;99065.13;326308;29;11790;-89
2023/08/28 00:05:31;;;;;;;2.15;0.60;;;;;;;18.29;78.46;99064.41;330176;29;4504;-89
2023/08/28 00:05:43;;;;;;;1.10;0.60;;;;;;;18.27;78.63;99062.81;333493;29;4527;-89
2023/08/28 00:05:55;;;;;;;0.95;0.57;;;;;;;18.25;78.53;99062.94;330836;29;6499;-89
2023/08/28 00:06:08;;;;;;;0.60;0.50;;;;;;;18.27;78.17;99068.06;328768;29;4620;-89
2023/08/28 00:06:20;;;;;;;0.55;0.55;;;;;;;18.27;77.75;99074.19;330903;29;17010;-88
2023/08/28 00:06:32;;;;;;;1.10;0.60;;;;;;;18.27;77.53;99066.31;331963;29;4576;-89
2023/08/28 00:06:44;;;;;;;1.10;0.60;;;;;;;18.25;77.83;99060.31;333408;29;9234;-88
2023/08/28 00:06:56;;;;;;;0.63;0.50;;;;;;;18.25;77.83;99064.72;327921;29;17832;-89
2023/08/28 00:07:08;;;;;;;0.52;0.52;;;;;;;18.27;78.08;99066.31;329292;29;4592;-89
2023/08/28 00:07:20;;;;;;;0.55;0.55;;;;;;;18.28;77.66;99067.13;328053;29;11275;-89
2023/08/28 00:07:33;;;;;;;1.10;0.60;;;;;;;18.28;77.66;99062.69;329652;29;17990;-88
2023/08/28 00:07:45;;;;;;;1.17;0.60;;;;;;;18.27;77.66;99061.03;329341;29;4512;-89
2023/08/28 00:07:57;;;;;;;1.10;0.50;;;;;;;18.27;77.43;99066.31;332780;29;5539;-89
2023/08/28 00:08:10;;;;;;;0.82;0.70;;;;;;;18.27;77.61;99061.03;330834;29;4583;-89
2023/08/28 00:08:22;;;;;;;1.10;0.70;;;;;;;18.27;77.37;99066.31;333277;29;4533;-89
2023/08/28 00:08:34;;;;;;;0.80;0.60;;;;;;;18.28;77.32;99067.97;332377;29;6285;-89
2023/08/28 00:08:46;;;;;;;0.60;0.50;;;;;;;18.29;77.57;99058.28;330319;29;16647;-89
2023/08/28 00:08:58;;;;;;;0.55;0.47;;;;;;;18.30;77.08;99065.22;330522;28;4790;-89
2023/08/28 00:09:11;;;;;;;0.60;0.60;;;;;;;18.28;77.23;99067.97;331597;29;9063;-89
2023/08/28 00:09:23;;;;;;;1.20;0.55;;;;;;;18.28;77.11;99057.44;333660;29;4598;-89
2023/08/28 00:09:35;;;;;;;3.00;0.50;;;;;;;18.30;76.98;99058.16;334568;28;4518;-89
2023/08/28 00:09:47;;;;;;;3.03;0.50;;;;;;;18.29;77.04;99056.50;332543;29;5294;-89
2023/08/28 00:09:59;;;;;;;1.98;0.60;;;;;;;18.29;77.18;99059.13;334745;29;4538;-89
2023/08/28 00:10:11;;;;;;;1.65;0.63;;;;;;;18.27;77.14;99060.19;332946;29;9432;-89
2023/08/28 00:10:24;;;;;;;1.15;0.65;;;;;;;18.27;77.18;99052.28;336485;28;4682;-89
2023/08/28 00:10:39;;;;;;;0.68;0.65;;;;;;;18.26;77.24;99059.34;329149;28;10232;-89
2023/08/28 00:10:54;;;;;;;0.70;0.60;;;;;;;18.26;77.27;99054.09;333280;29;18212;-89
2023/08/28 00:11:06;;;;;;;0.65;0.63;;;;;;;18.27;77.33;99058.41;332481;29;16437;-89
2023/08/28 00:11:18;;;;;;;0.60;0.60;;;;;;;18.27;77.57;99055.78;331561;29;17795;-89
2023/08/28 00:11:30;;;;;;;0.65;0.65;;;;;;;18.27;77.45;99054.91;333973;29;4803;-89
2023/08/28 00:11:42;;;;;;;0.50;0.50;;;;;;;18.27;77.53;99066.31;330806;29;17947;-89
2023/08/28 00:11:55;;;;;;;0.50;0.50;;;;;;;18.27;77.82;99055.78;333239;29;4563;-89
2023/08/28 00:12:07;;;;;;;1.80;0.70;;;;;;;18.28;77.98;99062.69;332792;29;4561;-89
2023/08/28 00:12:19;;;;;;;1.90;0.80;;;;;;;18.29;78.01;99055.63;330510;29;17830;-89
2023/08/28 00:12:34;;;;;;;0.50;0.50;;;;;;;18.27;78.14;99055.78;333149;29;4549;-89
2023/08/28 00:12:46;;;;;;;0.40;0.40;;;;;;;18.29;78.38;99053.88;327963;29;17587;-89
2023/08/28 00:12:58;;;;;;;1.38;0.50;;;;;;;18.30;78.24;99060.78;329254;29;17878;-89
2023/08/28 00:13:10;;;;;;;1.60;0.60;;;;;;;18.33;78.24;99062.34;331980;29;4485;-89
2023/08/28 00:13:22;;;;;;;1.42;0.60;;;;;;;18.32;78.52;99053.63;333974;28;7740;-89
2023/08/28 00:13:34;;;;;;;0.77;0.60;;;;;;;18.32;78.24;99056.25;333805;28;16012;-89
2023/08/28 00:13:46;;;;;;;0.80;0.70;;;;;;;18.34;78.10;99067.50;330837;28;4496;-89
2023/08/28 00:13:58;;;;;;;1.02;0.70;;;;;;;18.34;78.10;99062.25;332885;28;10385;-89
2023/08/28 00:14:10;;;;;;;1.17;0.68;;;;;;;18.35;77.93;99058.69;335641;28;4527;-89
2023/08/28 00:14:24;;;;;;;0.90;0.65;;;;;;;18.33;78.23;99063.22;334488;29;4492;-89
2023/08/28 00:14:36;;;;;;;0.75;0.70;;;;;;;18.32;78.31;99058.06;331488;29;17763;-88
2023/08/28 00:14:48;;;;;;;1.00;0.80;;;;;;;18.29;78.31;99053.88;334552;29;4508;-89
2023/08/28 00:15:00;;;;;;;0.93;0.73;;;;;;;18.28;78.59;99060.06;331360;29;17713;-89
2023/08/28 00:15:12;;;;;;;0.70;0.60;;;;;;;18.29;78.27;99059.13;331974;29;4623;-89
2023/08/28 00:15:24;;;;;;;0.60;0.60;;;;;;;18.29;78.35;99061.78;329776;29;4586;-88
2023/08/28 00:15:36;;;;;;;0.45;0.45;;;;;;;18.30;78.23;99059.97;332339;29;4484;-88
2023/08/28 00:15:49;;;;;;;0.50;0.50;;;;;;;18.29;78.26;99059.13;329230;29;10138;-89
2023/08/28 00:16:02;;;;;;;0.85;0.60;;;;;;;18.28;78.66;99060.06;332355;29;4545;-89
2023/08/28 00:16:14;;;;;;;0.90;0.60;;;;;;;18.24;79.00;99056.00;326842;29;17885;-89
2023/08/28 00:16:26;;;;;;;0.88;0.60;;;;;;;18.25;78.97;99060.31;330758;29;4724;-89
2023/08/28 00:16:38;;;;;;;0.60;0.60;;;;;;;18.25;78.59;99051.56;332843;29;4528;-89
2023/08/28 00:16:50;;;;;;;0.90;0.50;;;;;;;18.26;78.42;99054.09;329798;29;11154;-89
2023/08/28 00:17:04;;;;;;;1.00;0.50;;;;;;;18.25;78.31;99051.56;334370;29;4715;-88
2023/08/28 00:17:17;;;;;;;1.15;0.50;;;;;;;18.24;78.74;99050.72;332112;29;18186;-88
2023/08/28 00:17:30;;;;;;;0.73;0.50;;;;;;;18.24;78.89;99045.47;330138;29;5110;-89
2023/08/28 00:17:43;;;;;;;0.52;0.50;;;;;;;18.24;78.55;99050.72;334162;29;4751;-88
2023/08/28 00:17:55;;;;;;;1.58;0.50;;;;;;;18.23;78.42;99049.06;330346;29;4615;-89
2023/08/28 00:18:07;;;;;;;1.80;0.50;;;;;;;18.21;78.91;99048.34;333719;29;4865;-89
2023/08/28 00:18:19;;;;;;;0.63;0.50;;;;;;;18.20;79.10;99045.81;331346;29;4535;-89
2023/08/28 00:18:31;;;;;;;0.63;0.57;;;;;;;18.20;78.84;99049.28;329855;29;17098;-89
2023/08/28 00:18:43;;;;;;;0.60;0.52;;;;;;;18.19;79.04;99047.63;333163;29;4637;-89
2023/08/28 00:18:55;;;;;;;0.60;0.60;;;;;;;18.17;78.98;99044.25;330732;29;4547;-89
2023/08/28 00:19:08;;;;;;;0.63;0.60;;;;;;;18.16;79.10;99042.56;331786;29;4538;-89
2023/08/28 00:19:20;;;;;;;0.70;0.60;;;;;;;18.17;79.89;99039.00;330572;29;10078;-89
2023/08/28 00:19:33;;;;;;;0.60;0.60;;;;;;;18.16;79.76;99043.41;332744;29;4582;-89
2023/08/28 00:19:45;;;;;;;0.52;0.52;;;;;;;18.18;79.72;99045.94;332624;29;4674;-89
2023/08/28 00:19:57;;;;;;;0.60;0.60;;;;;;;18.18;79.65;99045.94;326383;28;19200;-89
2023/08/28 00:20:10;;;;;;;0.60;0.60;;;;;;;18.19;79.62;99042.34;333833;29;4587;-89
2023/08/28 00:20:22;;;;;;;0.63;0.63;;;;;;;18.18;79.70;99045.94;331974;29;16460;-89
2023/08/28 00:20:34;;;;;;;0.80;0.60;;;;;;;18.17;79.48;99037.19;335544;29;4554;-89
2023/08/28 00:20:46;;;;;;;0.75;0.60;;;;;;;18.15;79.84;99039.09;334837;29;4567;-89
2023/08/28 00:20:58;;;;;;;0.70;0.60;;;;;;;18.13;79.19;99038.38;331395;29;18098;-88
2023/08/28 00:21:10;;;;;;;0.70;0.70;;;;;;;18.14;79.03;99039.22;333069;29;4739;-89
2023/08/28 00:21:22;;;;;;;1.50;0.63;;;;;;;18.12;78.87;99041.13;331232;29;4654;-89
2023/08/28 00:21:34;;;;;;;1.60;0.60;;;;;;;18.08;78.77;99039.66;333300;29;4504;-89
2023/08/28 00:21:47;;;;;;;1.75;0.65;;;;;;;18.09;78.67;99041.31;333070;28;4526;-89
2023/08/28 00:21:59;;;;;;;0.85;0.60;;;;;;;18.10;78.92;99048.28;332225;29;16002;-89
2023/08/28 00:22:11;;;;;;;0.70;0.57;;;;;;;18.10;79.02;99043.03;333254;29;4554;-88
2023/08/28 00:22:23;;;;;;;1.60;0.50;;;;;;;18.11;79.51;99049.94;329162;29;7602;-88
2023/08/28 00:22:36;;;;;;;1.63;0.52;;;;;;;18.13;79.28;99040.19;334187;29;4667;-89
2023/08/28 00:22:49;;;;;;;1.55;0.70;;;;;;;18.14;79.26;99044.47;327124;29;16937;-89
2023/08/28 00:23:01;;;;;;;2.10;0.80;;;;;;;18.14;79.25;99049.72;333425;29;17142;-89
2023/08/28 00:23:13;;;;;;;2.10;0.70;;;;;;;18.16;79.31;99042.56;329015;29;16537;-89
2023/08/28 00:23:25;;;;;;;1.65;0.60;;;;;;;18.18;79.38;99040.66;334818;29;4572;-88
2023/08/28 00:23:37;;;;;;;1.27;0.60;;;;;;;18.20;79.21;99043.19;331805;29;4821;-89
2023/08/28 00:23:49;;;;;;;1.10;0.60;;;;;;;18.20;79.32;99038.75;335638;28;4871;-88
2023/08/28 00:24:02;;;;;;;0.60;0.60;;;;;;;18.19;79.59;99042.34;335719;29;4520;-89
2023/08/28 00:24:14;;;;;;;0.60;0.60;;;;;;;18.20;79.75;99044.03;330819;29;17787;-89
2023/08/28 00:24:26;;;;;;;0.60;0.60;;;;;;;18.20;79.56;99036.13;328746;29;4580;-89
2023/08/28 00:24:38;;;;;;;0.75;0.60;;;;;;;18.21;79.61;99039.59;332459;29;4529;-89
2023/08/28 00:24:50;;;;;;;0.70;0.60;;;;;;;18.22;79.53;99038.66;331942;29;18225;-89
2023/08/28 00:25:03;;;;;;;0.80;0.60;;;;;;;18.22;79.70;99036.03;333424;29;4559;-89
2023/08/28 00:25:15;;;;;;;0.90;0.57;;;;;;;18.23;79.85;99041.19;329398;29;18256;-89
2023/08/28 00:25:27;;;;;;;1.00;0.60;;;;;;;18.23;79.72;99037.69;332323;29;4527;-89
2023/08/28 00:25:39;;;;;;;0.60;0.52;;;;;;;18.23;79.48;99032.41;331909;29;17833;-89
2023/08/28 00:25:52;;;;;;;1.20;0.60;;;;;;;18.24;79.46;99024.44;329909;29;4601;-89
2023/08/28 00:26:03;;;;;;;1.35;0.60;;;;;;;18.24;79.58;99034.94;332810;28;4670;-89
2023/08/28 00:26:15;;;;;;;2.50;0.60;;;;;;;18.23;79.09;99033.28;335328;28;4534;-89
2023/08/28 00:26:28;;;;;;;2.53;0.52;;;;;;;18.22;79.84;99036.03;336710;28;4525;-89
2023/08/28 00:26:40;;;;;;;1.90;0.50;;;;;;;18.19;80.12;99037.09;333324;29;18034;-89
2023/08/28 00:26:52;;;;;;;0.70;0.50;;;;;;;18.15;79.73;99036.47;335495;28;4533;-89
2023/08/28 00:27:04;;;;;;;5.10;1.00;;;;;;;18.13;79.60;99029.66;333886;28;11471;-88
2023/08/28 00:27:16;;;;;;;5.88;1.00;;;;;;;18.13;79.71;99029.66;331049;29;16626;-89
2023/08/28 00:27:28;;;;;;;1.60;0.60;;;;;;;18.12;80.02;99030.59;329802;29;4521;-89
2023/08/28 00:27:41;;;;;;;1.80;0.60;;;;;;;18.07;79.78;99027.44;330789;29;17712;-89
2023/08/28 00:27:53;;;;;;;0.70;0.60;;;;;;;18.08;80.00;99031.78;332077;29;4568;-89
2023/08/28 00:28:05;;;;;;;0.70;0.60;;;;;;;18.07;79.91;99022.19;330650;28;6575;-89
2023/08/28 00:28:17;;;;;;;0.63;0.63;;;;;;;18.07;79.96;99022.19;333594;29;4550;-89
2023/08/28 00:28:29;;;;;;;0.90;0.80;;;;;;;18.08;79.90;99029.97;333929;29;4544;-89
2023/08/28 00:28:41;;;;;;;1.20;0.90;;;;;;;18.10;79.82;99021.97;326563;29;16513;-89
2023/08/28 00:28:53;;;;;;;1.17;0.90;;;;;;;18.05;79.99;99024.97;333397;29;4555;-89
2023/08/28 00:29:05;;;;;;;0.95;0.77;;;;;;;18.04;79.93;99022.44;324337;29;17802;-89
2023/08/28 00:29:17;;;;;;;0.85;0.68;;;;;;;18.06;80.12;99020.53;332502;29;4525;-89
2023/08/28 00:29:29;;;;;;;0.90;0.60;;;;;;;18.04;80.25;99017.19;331215;29;4583;-89
2023/08/28 00:29:41;;;;;;;1.35;0.50;;;;;;;18.05;80.26;99024.97;329999;29;18911;-89
2023/08/28 00:29:53;;;;;;;1.88;0.52;;;;;;;18.06;80.37;99021.34;333068;29;4952;-89
2023/08/28 00:30:07;;;;;;;2.00;0.60;;;;;;;18.08;80.04;99022.09;332418;29;7625;-88
2023/08/28 00:30:19;;;;;;;0.80;0.65;;;;;;;18.10;79.90;99021.97;330092;28;17546;-89
2023/08/28 00:30:31;;;;;;;0.80;0.63;;;;;;;18.11;79.73;99024.50;332420;28;17960;-89
2023/08/28 00:30:43;;;;;;;0.68;0.50;;;;;;;18.10;79.96;99020.19;336076;28;4600;-88
2023/08/28 00:30:56;;;;;;;0.47;0.47;;;;;;;18.14;79.91;99012.91;333499;28;10024;-89
2023/08/28 00:31:08;;;;;;;0.63;0.55;;;;;;;18.16;79.92;99022.34;336463;28;4563;-89
2023/08/28 00:31:20;;;;;;;1.00;0.60;;;;;;;18.17;79.75;99017.97;335451;29;4523;-89
2023/08/28 00:31:32;;;;;;;0.90;0.60;;;;;;;18.16;79.89;99016.25;330056;29;16864;-89
2023/08/28 00:31:44;;;;;;;0.60;0.57;;;;;;;18.15;80.27;99017.22;333289;29;4622;-89
2023/08/28 00:31:56;;;;;;;1.13;0.70;;;;;;;18.15;80.62;99009.34;328710;29;17354;-89
2023/08/28 00:32:08;;;;;;;1.63;0.82;;;;;;;18.15;80.38;99019.88;331296;29;4911;-88
2023/08/28 00:32:20;;;;;;;1.20;0.80;;;;;;;18.14;80.28;99018.16;329449;29;8374;-89
2023/08/28 00:32:34;;;;;;;0.80;0.80;;;;;;;18.15;80.08;99019.88;327967;29;17209;-89
2023/08/28 00:32:46;;;;;;;1.20;0.75;;;;;;;18.16;79.78;99021.53;328183;29;16924;-89
2023/08/28 00:32:58;;;;;;;1.80;0.80;;;;;;;18.17;80.04;99018.78;331097;29;4606;-89
2023/08/28 00:33:10;;;;;;;1.50;0.80;;;;;;;18.16;80.04;99021.53;330658;29;5303;-89
2023/08/28 00:33:22;;;;;;;1.45;0.68;;;;;;;18.16;79.73;99017.09;326778;29;4977;-89
2023/08/28 00:33:35;;;;;;;0.90;0.57;;;;;;;18.19;79.94;99020.44;332183;29;4591;-89
2023/08/28 00:33:47;;;;;;;0.82;0.68;;;;;;;18.19;80.49;99023.94;333386;28;16308;-89
2023/08/28 00:33:59;;;;;;;0.93;0.70;;;;;;;18.17;80.80;99018.78;334679;28;4549;-89
2023/08/28 00:34:11;;;;;;;1.40;0.70;;;;;;;18.16;81.00;99021.53;331351;29;11035;-89
2023/08/28 00:34:23;;;;;;;1.13;0.70;;;;;;;18.17;80.93;99024.06;334591;29;4512;-89
2023/08/28 00:34:35;;;;;;;1.40;0.75;;;;;;;18.17;80.00;99023.22;334027;29;4543;-89
2023/08/28 00:34:47;;;;;;;1.40;0.70;;;;;;;18.17;79.86;99020.59;329649;28;16510;-89
2023/08/28 00:34:59;;;;;;;1.35;0.68;;;;;;;18.16;79.43;99024.16;333668;29;4724;-89
2023/08/28 00:35:11;;;;;;;1.50;0.50;;;;;;;18.18;79.95;99022.25;334408;28;4524;-89
2023/08/28 00:35:23;;;;;;;2.95;0.60;;;;;;;18.18;79.94;99024.88;329916;29;16120;-89
2023/08/28 00:35:36;;;;;;;3.85;0.60;;;;;;;18.20;79.70;99025.59;334421;28;4837;-89
2023/08/28 00:35:49;;;;;;;3.05;0.50;;;;;;;18.21;79.91;99021.19;329536;29;10488;-88
2023/08/28 00:36:01;;;;;;;0.60;0.57;;;;;;;18.21;79.98;99022.03;333668;28;4530;-89
2023/08/28 00:36:13;;;;;;;0.60;0.60;;;;;;;18.22;79.96;99021.06;330790;29;18002;-89
2023/08/28 00:36:25;;;;;;;0.88;0.70;;;;;;;18.23;80.02;99021.91;331404;29;4559;-88
2023/08/28 00:36:37;;;;;;;0.95;0.60;;;;;;;18.24;80.04;99028.84;329600;29;10886;-89
2023/08/28 00:36:50;;;;;;;1.05;0.60;;;;;;;18.24;79.79;99024.44;332181;29;4678;-89
2023/08/28 00:37:03;;;;;;;0.90;0.60;;;;;;;18.24;79.90;99024.44;331600;29;4994;-89
2023/08/28 00:37:15;;;;;;;0.77;0.60;;;;;;;18.24;79.95;99024.44;334189;29;5106;-89
2023/08/28 00:37:27;;;;;;;0.80;0.60;;;;;;;18.23;80.06;99025.38;331909;29;9104;-89
2023/08/28 00:37:40;;;;;;;0.82;0.60;;;;;;;18.22;80.15;99023.69;328739;29;18166;-89
2023/08/28 00:37:52;;;;;;;1.75;0.70;;;;;;;18.21;80.38;99024.66;333564;29;4545;-89
2023/08/28 00:38:04;;;;;;;1.70;0.70;;;;;;;18.22;80.68;99026.34;329431;29;17992;-89
2023/08/28 00:38:16;;;;;;;1.55;0.60;;;;;;;18.23;79.99;99027.16;332191;29;4833;-88
2023/08/28 00:38:28;;;;;;;1.67;0.60;;;;;;;18.22;79.95;99030.75;328670;29;11560;-88
2023/08/28 00:38:40;;;;;;;2.75;0.70;;;;;;;18.22;80.42;99026.34;332089;29;4726;-89
2023/08/28 00:38:52;;;;;;;2.92;0.70;;;;;;;18.22;80.40;99028.97;330683;29;4551;-88
2023/08/28 00:39:04;;;;;;;1.80;0.60;;;;;;;18.21;80.21;99035.19;327485;29;17354;-89
2023/08/28 00:39:16;;;;;;;0.60;0.57;;;;;;;18.22;80.39;99028.97;330130;29;16687;-89
2023/08/28 00:39:28;;;;;;;0.75;0.70;;;;;;;18.23;80.36;99030.66;331165;29;6715;-89
2023/08/28 00:39:40;;;;;;;1.20;0.70;;;;;;;18.23;80.41;99028.03;331917;29;17210;-89
2023/08/28 00:39:52;;;;;;;1.00;0.60;;;;;;;18.25;80.36;99030.50;332766;29;4484;-89
2023/08/28 00:40:07;;;;;;;0.93;0.52;;;;;;;18.24;80.28;99042.84;330850;29;18932;-89
2023/08/28 00:40:19;;;;;;;0.73;0.60;;;;;;;18.23;80.16;99043.81;333718;28;7146;-89
2023/08/28 00:40:31;;;;;;;1.90;0.60;;;;;;;18.23;80.33;99033.28;334543;28;4581;-89
2023/08/28 00:40:43;;;;;;;2.10;0.57;;;;;;;18.23;80.15;99035.06;335259;29;4883;-89
2023/08/28 00:40:55;;;;;;;2.20;0.60;;;;;;;18.24;80.02;99034.94;330592;29;10767;-89
2023/08/28 00:41:07;;;;;;;0.57;0.50;;;;;;;18.26;79.77;99034.84;333596;28;4496;-89
2023/08/28 00:41:19;;;;;;;0.70;0.60;;;;;;;18.25;79.95;99036.63;331048;28;18590;-89
2023/08/28 00:41:31;;;;;;;0.88;0.52;;;;;;;18.23;79.79;99043.81;337143;28;4474;-89
2023/08/28 00:41:43;;;;;;;0.80;0.50;;;;;;;18.25;79.85;99034.00;334775;28;4588;-89
2023/08/28 00:41:55;;;;;;;0.73;0.50;;;;;;;18.25;79.72;99041.91;333098;28;5221;-89
2023/08/28 00:42:07;;;;;;;0.70;0.68;;;;;;;18.25;79.93;99031.38;335823;28;4941;-89
2023/08/28 00:42:21;;;;;;;1.15;0.70;;;;;;;18.26;79.77;99027.78;333655;28;4588;-89
2023/08/28 00:42:33;;;;;;;2.45;0.63;;;;;;;18.27;79.93;99033.88;336249;28;17769;-89
2023/08/28 00:42:45;;;;;;;2.70;0.60;;;;;;;18.26;79.88;99033.03;331122;28;17625;-89
2023/08/28 00:42:57;;;;;;;2.10;0.70;;;;;;;18.25;80.23;99028.75;334410;28;4504;-89
2023/08/28 00:43:09;;;;;;;0.80;0.60;;;;;;;18.25;80.02;99033.16;335290;28;4532;-88
2023/08/28 00:43:21;;;;;;;0.77;0.60;;;;;;;18.24;79.79;99034.94;331559;28;18222;-89
2023/08/28 00:43:33;;;;;;;0.65;0.60;;;;;;;18.24;80.37;99024.44;334083;28;4490;-89
2023/08/28 00:43:45;;;;;;;0.98;0.50;;;;;;;18.26;80.26;99025.16;331533;28;5125;-88
2023/08/28 00:43:57;;;;;;;0.90;0.50;;;;;;;18.26;80.02;99027.78;332347;28;16494;-89
2023/08/28 00:44:09;;;;;;;0.93;0.50;;;;;;;18.25;79.77;99028.75;335341;28;4517;-88
2023/08/28 00:44:21;;;;;;;0.82;0.68;;;;;;;18.24;79.79;99023.59;332488;28;17731;-89
2023/08/28 00:44:33;;;;;;;1.30;0.75;;;;;;;18.24;79.89;99024.44;334825;28;4572;-88
2023/08/28 00:44:45;;;;;;;1.50;1.00;;;;;;;18.24;80.10;99018.34;335944;28;7293;-89
2023/08/28 00:44:57;;;;;;;1.00;0.90;;;;;;;18.24;79.91;99018.34;332329;28;18315;-89
2023/08/28 00:45:09;;;;;;;0.85;0.85;;;;;;;18.22;79.85;99014.97;337029;28;4485;-88
2023/08/28 00:45:22;;;;;;;0.60;0.60;;;;;;;18.23;79.72;99016.63;333932;28;4502;-89
2023/08/28 00:45:40;;;;;;;0.70;0.70;;;;;;;18.22;79.68;99014.97;334182;29;4531;-89
2023/08/28 00:45:53;;;;;;;0.57;0.57;;;;;;;18.22;79.65;99010.53;332981;28;16865;-89
2023/08/28 00:46:05;;;;;;;1.48;0.50;;;;;;;18.24;79.79;99013.91;334422;28;4503;-89
2023/08/28 00:46:17;;;;;;;1.80;0.60;;;;;;;18.25;79.73;99010.34;331691;28;18309;-89
2023/08/28 00:46:30;;;;;;;2.13;0.75;;;;;;;18.25;79.63;99007.69;335134;28;4486;-88
2023/08/28 00:46:43;;;;;;;1.15;0.80;;;;;;;18.25;79.98;99010.34;330544;29;4520;-89
2023/08/28 00:46:56;;;;;;;1.63;0.70;;;;;;;18.26;79.78;99001.47;333387;29;4540;-89
2023/08/28 00:47:10;;;;;;;1.27;0.50;;;;;;;18.25;79.79;99007.69;330754;28;19170;-88
2023/08/28 00:47:23;;;;;;;1.13;0.57;;;;;;;18.27;79.91;99007.56;331187;29;17068;-88
2023/08/28 00:47:35;;;;;;;1.10;0.60;;;;;;;18.28;79.92;99001.38;332305;29;4487;-89
2023/08/28 00:47:48;;;;;;;0.68;0.60;;;;;;;18.28;79.81;99004.81;330353;29;17385;-89
2023/08/28 00:48:02;;;;;;;1.33;0.60;;;;;;;18.29;79.87;99001.25;328473;29;4685;-89
2023/08/28 00:48:16;;;;;;;2.20;0.70;;;;;;;18.29;80.32;99006.53;330193;29;18833;-88
2023/08/28 00:48:29;;;;;;;2.22;0.73;;;;;;;18.29;80.22;99006.53;328947;29;17834;-89
2023/08/28 00:48:41;;;;;;;1.20;0.88;;;;;;;18.30;80.15;99007.34;333497;29;4501;-89
2023/08/28 00:48:53;;;;;;;1.60;0.80;;;;;;;18.29;80.11;99006.53;329558;29;17740;-89
2023/08/28 00:49:05;;;;;;;1.00;0.60;;;;;;;18.30;80.18;99013.44;331097;29;4587;-89
2023/08/28 00:49:17;;;;;;;0.60;0.60;;;;;;;18.32;80.01;99011.53;330114;29;4531;-89
2023/08/28 00:49:30;;;;;;;0.63;0.60;;;;;;;18.31;79.99;99007.25;329434;29;4613;-88
2023/08/28 00:49:43;;;;;;;0.60;0.60;;;;;;;18.32;80.03;99006.28;335336;28;4449;-89
2023/08/28 00:49:55;;;;;;;0.85;0.75;;;;;;;18.32;79.94;99008.91;330413;29;18558;-88
2023/08/28 00:50:08;;;;;;;0.90;0.70;;;;;;;18.32;79.73;99010.69;332153;29;4492;-89
2023/08/28 00:50:20;;;;;;;0.70;0.57;;;;;;;18.33;79.83;99007.97;333971;29;17891;-89
2023/08/28 00:50:32;;;;;;;0.55;0.50;;;;;;;18.34;79.88;99016.69;335235;28;4617;-89
2023/08/28 00:50:44;;;;;;;1.00;0.50;;;;;;;18.33;79.91;99005.34;331106;28;16870;-89
2023/08/28 00:50:57;;;;;;;0.98;0.50;;;;;;;18.34;79.86;99014.88;333333;29;4545;-89
2023/08/28 00:51:09;;;;;;;0.57;0.57;;;;;;;18.34;79.66;99016.69;332783;28;16461;-88
2023/08/28 00:51:22;;;;;;;0.93;0.50;;;;;;;18.34;79.79;99019.31;334317;29;4557;-89
2023/08/28 00:51:34;;;;;;;0.90;0.50;;;;;;;18.34;79.52;99020.16;328776;28;4684;-89
2023/08/28 00:51:46;;;;;;;1.30;0.60;;;;;;;18.35;79.54;99021.84;335691;28;4549;-89
2023/08/28 00:51:59;;;;;;;0.70;0.52;;;;;;;18.35;79.30;99018.34;330777;28;18411;-89
2023/08/28 00:52:12;;;;;;;0.52;0.50;;;;;;;18.36;79.29;99022.69;332628;29;4769;-88
2023/08/28 00:52:24;;;;;;;0.73;0.57;;;;;;;18.36;79.48;99026.13;325642;29;18010;-89
2023/08/28 00:52:37;;;;;;;0.70;0.60;;;;;;;18.35;79.43;99027.09;334730;28;4635;-89
2023/08/28 00:52:49;;;;;;;0.95;0.70;;;;;;;18.36;79.56;99031.41;330311;29;18210;-88
2023/08/28 00:53:01;;;;;;;1.00;0.68;;;;;;;18.38;79.27;99026.03;334539;29;4523;-89
2023/08/28 00:53:15;;;;;;;0.90;0.65;;;;;;;18.37;79.28;99024.34;332499;28;18051;-89
2023/08/28 00:53:27;;;;;;;0.95;0.60;;;;;;;18.39;79.43;99032.13;335464;28;4509;-89
2023/08/28 00:53:39;;;;;;;1.00;0.57;;;;;;;18.39;79.32;99032.13;332867;28;16425;-89
2023/08/28 00:53:51;;;;;;;0.98;0.50;;;;;;;18.39;79.21;99026.84;336643;28;4549;-88
2023/08/28 00:54:03;;;;;;;0.90;0.77;;;;;;;18.39;79.15;99032.13;335817;28;4477;-88
2023/08/28 00:54:16;;;;;;;1.40;0.80;;;;;;;18.39;79.36;99032.97;333451;28;18469;-89
2023/08/28 00:54:28;;;;;;;1.55;0.80;;;;;;;18.38;79.02;99031.28;336102;28;4493;-89
2023/08/28 00:54:41;;;;;;;1.23;0.60;;;;;;;18.39;79.38;99032.13;331920;28;19217;-89
2023/08/28 00:54:53;;;;;;;1.00;0.65;;;;;;;18.39;79.10;99038.25;334378;29;4490;-89
2023/08/28 00:55:06;;;;;;;0.60;0.60;;;;;;;18.38;79.25;99039.19;331135;28;16808;-89
2023/08/28 00:55:18;;;;;;;0.60;0.50;;;;;;;18.39;79.87;99042.66;333091;29;5022;-88
2023/08/28 00:55:33;;;;;;;0.70;0.50;;;;;;;18.38;80.24;99038.34;329678;29;16866;-88
2023/08/28 00:55:46;;;;;;;0.80;0.60;;;;;;;18.38;80.26;99038.34;326969;29;18819;-88
2023/08/28 00:55:58;;;;;;;0.70;0.60;;;;;;;18.35;79.67;99037.63;333317;29;4706;-89
2023/08/28 00:56:10;;;;;;;0.63;0.60;;;;;;;18.36;79.85;99044.56;330964;29;10779;-88
2023/08/28 00:56:22;;;;;;;1.27;0.60;;;;;;;18.38;80.04;99046.25;332451;29;4547;-89
2023/08/28 00:56:35;;;;;;;1.30;0.60;;;;;;;18.34;80.36;99041.19;333078;29;4530;-89
2023/08/28 00:56:48;;;;;;;1.40;0.70;;;;;;;18.31;81.13;99035.31;330046;29;16001;-89
2023/08/28 00:57:02;;;;;;;0.73;0.70;;;;;;;18.30;81.18;99034.50;325970;29;11308;-89
2023/08/28 00:57:15;;;;;;;2.00;0.70;;;;;;;18.31;81.18;99040.59;333130;29;4539;-89
2023/08/28 00:57:28;;;;;;;3.13;0.80;;;;;;;18.28;80.88;99031.13;330235;29;17833;-89
2023/08/28 00:57:40;;;;;;;3.63;0.90;;;;;;;18.29;80.82;99035.47;333037;29;4470;-90
2023/08/28 00:57:52;;;;;;;1.92;0.85;;;;;;;18.30;80.55;99039.75;329266;29;17680;-89
2023/08/28 00:58:04;;;;;;;2.03;0.85;;;;;;;18.29;80.46;99038.09;331886;29;4542;-89
2023/08/28 00:58:17;;;;;;;2.05;0.80;;;;;;;18.30;80.31;99042.38;324355;29;18427;-89
2023/08/28 00:58:29;;;;;;;1.63;0.80;;;;;;;18.31;80.49;99041.44;332464;29;4529;-89
2023/08/28 00:58:41;;;;;;;1.20;0.90;;;;;;;18.33;80.22;99039.53;325080;29;16882;-89
2023/08/28 00:58:53;;;;;;;1.10;0.90;;;;;;;18.30;79.99;99037.13;332004;29;4571;-89
2023/08/28 00:59:05;;;;;;;0.83;0.77;;;;;;;18.31;80.13;99035.31;331977;29;4539;-89
2023/08/28 00:59:17;;;;;;;0.68;0.68;;;;;;;18.32;80.36;99047.53;328262;29;18640;-88